Time;durP1;ratioP1;P1;durP2;ratioP2;P2;SDS_P1;SDS_P2;PMS_P1;PMS_P2;Temp;Humidity;BMP_temperature;BMP_pressure;BME280_temperature;BME280_humidity;BME280_pressure;Samples;Min_cycle;Max_cycle;Signal;HPM_P1;HPM_P2
2024/02/29 00:00:26;;;;;;;19.37;8.50;;;3.70;99.90;;;4.40;100.00;98373.13;4983579;28;20472;-82
2024/02/29 00:02:54;;;;;;;20.07;10.17;;;3.60;99.90;;;4.37;100.00;98373.41;4982484;28;20479;-82
2024/02/29 00:05:22;;;;;;;21.00;11.40;;;3.60;99.90;;;4.40;100.00;98373.13;4980943;28;20854;-82
2024/02/29 00:07:50;;;;;;;18.33;9.70;;;3.70;99.90;;;4.33;100.00;98372.06;4982573;28;20986;-82
2024/02/29 00:10:19;;;;;;;15.95;9.23;;;3.60;99.90;;;4.27;100.00;98374.41;4981572;28;20468;-82
2024/02/29 00:12:48;;;;;;;21.00;9.93;;;3.50;99.90;;;4.26;100.00;98376.16;4982507;28;20632;-82
2024/02/29 00:15:17;;;;;;;17.13;9.33;;;3.60;99.90;;;4.35;100.00;98372.72;4981471;28;20547;-81
2024/02/29 00:17:47;;;;;;;20.87;10.30;;;3.70;99.90;;;4.44;100.00;98369.28;4980984;28;20493;-82
2024/02/29 00:20:16;;;;;;;18.13;8.90;;;3.80;99.90;;;4.47;100.00;98366.44;4981035;28;20487;-82
2024/02/29 00:22:45;;;;;;;20.83;9.73;;;3.80;99.90;;;4.49;100.00;98367.09;4982534;28;20999;-82
2024/02/29 00:25:14;;;;;;;21.80;10.37;;;3.80;99.90;;;4.49;100.00;98359.34;4982283;28;20471;-82
2024/02/29 00:27:43;;;;;;;23.70;11.20;;;3.80;99.90;;;4.49;100.00;98369.69;4981245;28;20971;-82
2024/02/29 00:30:12;;;;;;;31.30;11.90;;;3.90;99.90;;;4.53;100.00;98365.88;4978972;28;20468;-82
2024/02/29 00:32:40;;;;;;;30.07;12.57;;;3.80;99.90;;;4.54;100.00;98364.09;4982077;28;20491;-82
2024/02/29 00:35:10;;;;;;;29.90;12.38;;;3.80;99.90;;;4.50;100.00;98360.97;4981100;28;20463;-82
2024/02/29 00:37:39;;;;;;;25.83;11.17;;;3.90;99.90;;;4.54;100.00;98354.56;4981463;28;20206;-82
2024/02/29 00:40:10;;;;;;;28.30;12.90;;;3.90;99.90;;;4.62;100.00;98359.00;4980702;28;20499;-82
2024/02/29 00:42:38;;;;;;;29.20;12.80;;;3.90;99.90;;;4.61;100.00;98351.41;4980134;28;20564;-82
2024/02/29 00:45:08;;;;;;;28.90;13.40;;;3.80;99.90;;;4.60;100.00;98360.94;4980354;28;21015;-82
2024/02/29 00:47:36;;;;;;;32.93;12.90;;;3.90;99.90;;;4.61;100.00;98356.59;4981147;28;20476;-82
2024/02/29 00:50:07;;;;;;;34.60;15.00;;;3.90;99.90;;;4.60;100.00;98352.34;4979630;28;20497;-82
2024/02/29 00:52:38;;;;;;;38.00;14.97;;;3.80;99.90;;;4.62;100.00;98353.03;4979480;28;20965;-82
2024/02/29 00:55:07;;;;;;;35.00;13.80;;;3.90;99.90;;;4.56;100.00;98344.88;4980231;28;20464;-82
2024/02/29 00:57:36;;;;;;;39.23;15.50;;;3.80;99.90;;;4.55;100.00;98343.22;4980728;28;20487;-82
2024/02/29 01:00:08;;;;;;;35.38;14.35;;;3.90;99.90;;;4.58;100.00;98336.97;4981077;28;20955;-82
2024/02/29 01:02:37;;;;;;;35.07;15.63;;;3.90;99.90;;;4.54;100.00;98328.69;4981778;28;20201;-82
2024/02/29 01:05:07;;;;;;;36.45;15.35;;;4.00;99.90;;;4.63;100.00;98328.75;4976871;28;20604;-82
2024/02/29 01:07:38;;;;;;;30.95;15.15;;;4.00;99.90;;;4.65;100.00;98332.84;4981619;28;20406;-82
2024/02/29 01:10:08;;;;;;;41.37;14.80;;;4.00;99.90;;;4.61;100.00;98325.50;4979800;28;20213;-82
2024/02/29 01:12:39;;;;;;;36.33;15.32;;;4.00;99.90;;;4.62;100.00;98319.38;4981455;28;20461;-82
2024/02/29 01:15:09;;;;;;;30.17;13.47;;;3.90;99.90;;;4.66;100.00;98329.28;4981201;28;20231;-82
2024/02/29 01:17:38;;;;;;;28.40;13.70;;;4.00;99.90;;;4.64;100.00;98320.88;4981021;28;20958;-82
2024/02/29 01:20:08;;;;;;;35.03;13.73;;;4.00;99.90;;;4.66;100.00;98318.13;4981008;28;20519;-82
2024/02/29 01:22:38;;;;;;;30.30;14.53;;;4.00;99.90;;;4.57;100.00;98312.84;4981376;28;20520;-82
2024/02/29 01:25:07;;;;;;;28.27;14.30;;;4.10;99.90;;;4.65;100.00;98314.69;4980570;28;20462;-82
2024/02/29 01:27:36;;;;;;;28.70;12.88;;;4.00;99.90;;;4.56;100.00;98316.38;4980768;28;20468;-82
2024/02/29 01:30:06;;;;;;;30.27;14.23;;;3.90;99.90;;;4.54;100.00;98307.97;4980409;28;20553;-82
2024/02/29 01:32:34;;;;;;;32.90;13.83;;;3.90;99.90;;;4.56;100.00;98306.03;4981212;28;20466;-82
2024/02/29 01:35:06;;;;;;;29.47;12.97;;;3.90;99.90;;;4.59;100.00;98294.56;4980921;28;21060;-82
2024/02/29 01:37:35;;;;;;;29.17;13.33;;;3.90;99.90;;;4.61;100.00;98305.63;4981601;28;20465;-81
2024/02/29 01:40:06;;;;;;;31.27;12.67;;;3.90;99.90;;;4.45;100.00;98306.22;4978860;28;20507;-82
2024/02/29 01:42:35;;;;;;;27.53;13.30;;;3.70;99.90;;;4.49;100.00;98302.38;4981531;28;20472;-82
2024/02/29 01:45:04;;;;;;;28.83;12.63;;;3.90;99.90;;;4.49;100.00;98302.38;4980237;28;20468;-82
2024/02/29 01:47:33;;;;;;;27.63;12.97;;;3.90;99.90;;;4.49;100.00;98302.38;4981369;28;20466;-82
2024/02/29 01:50:04;;;;;;;22.07;10.93;;;3.80;99.90;;;4.53;100.00;98298.56;4980417;28;20472;-82
2024/02/29 01:52:37;;;;;;;26.45;11.57;;;3.80;99.90;;;4.49;100.00;98301.56;4979390;28;20460;-82
2024/02/29 01:55:10;;;;;;;19.90;10.00;;;3.90;99.90;;;4.48;100.00;98292.97;4980541;28;20202;-82
2024/02/29 01:57:40;;;;;;;24.80;11.67;;;3.80;99.90;;;4.49;100.00;98284.25;4980687;28;20526;-82
2024/02/29 02:00:10;;;;;;;29.13;13.20;;;3.90;99.90;;;4.52;100.00;98275.38;4980933;28;20503;-82
2024/02/29 02:02:39;;;;;;;30.57;12.80;;;3.80;99.90;;;4.50;100.00;98272.94;4982044;28;20825;-82
2024/02/29 02:05:08;;;;;;;26.90;12.00;;;3.80;99.90;;;4.55;100.00;98270.72;4982343;28;20469;-82
2024/02/29 02:07:39;;;;;;;25.53;11.90;;;3.80;99.90;;;4.56;100.00;98268.97;4983533;28;20225;-82
2024/02/29 02:10:11;;;;;;;24.47;11.47;;;3.90;99.90;;;4.56;100.00;98264.59;4986122;28;20466;-82
2024/02/29 02:12:40;;;;;;;26.37;12.50;;;3.80;99.90;;;4.49;100.00;98263.53;4985292;28;20542;-81
2024/02/29 02:15:09;;;;;;;27.53;11.20;;;3.80;99.90;;;4.43;100.00;98255.53;4986081;28;20524;-82
2024/02/29 02:17:38;;;;;;;25.53;11.17;;;3.80;99.90;;;4.42;100.00;98256.50;4984030;28;20507;-82
2024/02/29 02:20:15;;;;;;;31.05;12.43;;;3.80;99.90;;;4.45;100.00;98263.97;4984920;28;20504;-83
2024/02/29 02:22:43;;;;;;;27.90;11.77;;;3.80;99.90;;;4.48;100.00;98254.13;4985100;28;20258;-82
2024/02/29 02:25:12;;;;;;;25.17;11.27;;;3.80;99.90;;;4.40;100.00;98251.47;4984618;28;20465;-82
2024/02/29 02:27:41;;;;;;;30.47;12.73;;;3.70;99.90;;;4.44;100.00;98245.03;4984193;28;20468;-82
2024/02/29 02:30:11;;;;;;;26.73;11.77;;;3.70;99.90;;;4.45;100.00;98251.84;4984108;28;20480;-82
2024/02/29 02:32:40;;;;;;;29.57;12.60;;;3.70;99.90;;;4.43;100.00;98250.38;4984593;28;20460;-82
2024/02/29 02:35:09;;;;;;;23.43;11.60;;;3.80;99.90;;;4.40;100.00;98235.94;4984806;28;20850;-82
2024/02/29 02:37:40;;;;;;;25.03;10.60;;;3.80;99.90;;;4.41;100.00;98231.56;4982728;28;20966;-82
2024/02/29 02:40:10;;;;;;;23.40;10.90;;;3.80;99.90;;;4.35;100.00;98235.53;4981987;28;20521;-82
2024/02/29 02:42:39;;;;;;;26.87;11.00;;;3.90;99.90;;;4.25;100.00;98229.59;4984300;28;20889;-82
2024/02/29 02:45:09;;;;;;;33.53;10.97;;;3.90;99.90;;;4.24;100.00;98227.13;4982907;28;20519;-82
2024/02/29 02:47:38;;;;;;;29.25;12.07;;;3.70;99.90;;;4.14;100.00;98231.53;4984767;28;20521;-82
2024/02/29 02:50:07;;;;;;;25.97;11.57;;;3.50;99.90;;;4.18;100.00;98217.38;4983202;28;20204;-82
2024/02/29 02:52:36;;;;;;;21.88;10.50;;;3.60;99.90;;;4.19;100.00;98214.66;4985810;28;20468;-82
2024/02/29 02:55:07;;;;;;;24.70;11.00;;;3.50;99.90;;;4.16;100.00;98214.13;4982800;28;20473;-82
2024/02/29 02:57:35;;;;;;;25.60;10.23;;;3.70;99.90;;;4.20;100.00;98205.91;4984154;28;20754;-82
2024/02/29 03:00:05;;;;;;;24.30;11.20;;;3.70;99.90;;;4.20;100.00;98202.53;4983460;28;20503;-80
2024/02/29 03:02:33;;;;;;;25.13;10.47;;;3.60;99.90;;;4.15;100.00;98202.13;4984752;28;20471;-82
2024/02/29 03:05:02;;;;;;;22.50;11.13;;;3.50;99.90;;;4.15;100.00;98202.94;4984090;28;20970;-82
2024/02/29 03:07:30;;;;;;;25.63;11.30;;;3.40;99.90;;;4.17;100.00;98200.19;4983868;28;20841;-82
2024/02/29 03:09:59;;;;;;;21.83;10.40;;;3.50;99.90;;;4.02;100.00;98197.28;4983939;28;20467;-82
2024/02/29 03:12:29;;;;;;;23.10;10.30;;;3.40;99.90;;;4.00;100.00;98191.41;4983008;28;20576;-82
2024/02/29 03:14:57;;;;;;;23.13;10.53;;;3.30;99.90;;;3.94;100.00;98192.00;4984215;28;20936;-82
2024/02/29 03:17:26;;;;;;;23.00;10.73;;;3.20;99.90;;;3.94;100.00;98192.81;4982207;28;20468;-82
2024/02/29 03:19:54;;;;;;;20.40;10.37;;;3.30;99.90;;;3.94;100.00;98187.66;4983466;28;20496;-82
2024/02/29 03:22:23;;;;;;;23.10;11.00;;;3.30;99.90;;;3.99;100.00;98190.59;4983648;28;20483;-82
2024/02/29 03:24:52;;;;;;;21.60;10.97;;;3.30;99.90;;;3.98;100.00;98201.13;4983902;28;20996;-82
2024/02/29 03:27:21;;;;;;;20.27;10.97;;;3.20;99.90;;;3.95;100.00;98198.81;4983735;28;20460;-81
2024/02/29 03:29:51;;;;;;;19.52;9.77;;;3.20;99.90;;;4.02;100.00;98194.69;4985361;28;20468;-82
2024/02/29 03:32:20;;;;;;;19.83;9.30;;;3.30;99.90;;;4.07;100.00;98197.66;4984537;28;20796;-82
2024/02/29 03:34:49;;;;;;;22.80;11.17;;;3.30;99.90;;;3.97;100.00;98192.53;4983149;28;20470;-82
2024/02/29 03:37:18;;;;;;;20.90;9.83;;;3.20;99.90;;;3.98;100.00;98188.19;4983239;28;20478;-82
2024/02/29 03:39:46;;;;;;;21.83;10.73;;;3.20;99.90;;;3.97;100.00;98186.53;4983819;28;20944;-82
2024/02/29 03:42:17;;;;;;;22.40;10.88;;;3.20;99.90;;;4.05;100.00;98176.31;4982135;28;20476;-82
2024/02/29 03:44:46;;;;;;;28.70;10.63;;;3.30;99.90;;;4.02;100.00;98179.19;4983070;28;20609;-81
2024/02/29 03:47:16;;;;;;;23.17;10.33;;;3.30;99.90;;;3.96;100.00;98177.13;4982891;28;20471;-82
2024/02/29 03:49:44;;;;;;;28.70;10.97;;;3.30;99.90;;;3.99;100.00;98169.91;4982839;28;21009;-82
2024/02/29 03:52:12;;;;;;;24.83;10.93;;;3.30;99.90;;;3.84;100.00;98176.53;4981444;28;20994;-82
2024/02/29 03:54:41;;;;;;;23.17;10.17;;;3.10;99.90;;;3.75;100.00;98181.72;4982900;28;20303;-82
2024/02/29 03:57:09;;;;;;;19.40;8.70;;;3.10;99.90;;;3.72;100.00;98179.41;4983201;28;20474;-81
2024/02/29 03:59:38;;;;;;;20.67;9.87;;;3.10;99.90;;;3.70;100.00;98184.72;4981823;28;20480;-82
2024/02/29 04:02:07;;;;;;;24.23;11.10;;;3.00;99.90;;;3.72;100.00;98184.56;4982156;28;20897;-82
2024/02/29 04:04:39;;;;;;;20.03;9.60;;;3.20;99.90;;;3.70;100.00;98181.31;4983132;28;20503;-81
2024/02/29 04:07:07;;;;;;;17.23;8.53;;;3.00;99.90;;;3.74;100.00;98174.91;4983186;28;20464;-82
2024/02/29 04:09:37;;;;;;;20.57;9.90;;;3.00;99.90;;;3.69;100.00;98174.50;4981399;28;20479;-82
2024/02/29 04:12:06;;;;;;;22.40;9.30;;;3.00;99.90;;;3.72;100.00;98174.22;4981457;28;20975;-81
2024/02/29 04:14:38;;;;;;;19.83;9.27;;;3.00;99.90;;;3.73;100.00;98168.13;4979772;28;20470;-82
2024/02/29 04:17:07;;;;;;;20.90;9.77;;;3.10;99.90;;;3.71;100.00;98170.84;4981554;28;21538;-82
2024/02/29 04:19:37;;;;;;;22.13;9.30;;;3.10;99.90;;;3.64;100.00;98166.38;4981134;28;20814;-82
2024/02/29 04:22:06;;;;;;;24.40;10.90;;;3.10;99.90;;;3.69;100.00;98161.59;4980337;28;20453;-82
2024/02/29 04:24:35;;;;;;;21.27;9.67;;;3.00;99.90;;;3.60;100.00;98158.09;4981743;28;21249;-82
2024/02/29 04:27:04;;;;;;;21.17;9.23;;;2.90;99.90;;;3.58;100.00;98154.00;4981482;28;20461;-82
2024/02/29 04:29:32;;;;;;;23.80;9.17;;;2.90;99.90;;;3.47;100.00;98152.41;4980550;28;20468;-82
2024/02/29 04:32:00;;;;;;;21.23;9.70;;;2.80;99.90;;;3.50;100.00;98154.72;4982073;28;21121;-82
2024/02/29 04:34:29;;;;;;;19.53;9.07;;;2.80;99.90;;;3.37;100.00;98147.25;4981607;28;20881;-82
2024/02/29 04:36:59;;;;;;;16.57;8.37;;;2.80;99.90;;;3.39;100.00;98145.34;4981460;28;20468;-82
2024/02/29 04:39:27;;;;;;;20.60;8.80;;;2.80;99.90;;;3.37;100.00;98138.69;4981760;28;20552;-82
2024/02/29 04:41:56;;;;;;;21.30;9.10;;;2.70;99.90;;;3.45;100.00;98136.22;4982810;28;20557;-82
2024/02/29 04:44:24;;;;;;;25.70;10.10;;;2.80;99.90;;;3.40;100.00;98125.50;4982173;28;20520;-82
2024/02/29 04:46:53;;;;;;;18.70;8.37;;;2.80;99.90;;;3.30;100.00;98120.34;4982313;28;20469;-82
2024/02/29 04:49:21;;;;;;;18.90;8.40;;;2.80;99.90;;;3.24;100.00;98133.81;4982518;28;20984;-82
2024/02/29 04:51:49;;;;;;;17.70;8.57;;;2.60;99.90;;;3.34;100.00;98126.03;4981642;28;20480;-82
2024/02/29 04:54:19;;;;;;;19.80;8.40;;;2.70;99.90;;;3.40;100.00;98131.47;4981697;28;20465;-82
2024/02/29 04:56:48;;;;;;;16.57;8.10;;;2.80;99.90;;;3.36;100.00;98121.56;4981228;28;21111;-82
2024/02/29 04:59:16;;;;;;;18.37;9.03;;;2.70;99.90;;;3.31;100.00;98127.13;4980921;28;20527;-82
2024/02/29 05:01:44;;;;;;;21.80;8.60;;;2.60;99.90;;;3.42;100.00;98121.81;4982540;28;20896;-82
2024/02/29 05:04:13;;;;;;;20.80;8.43;;;2.70;99.90;;;3.32;100.00;98115.84;4981353;28;20522;-82
2024/02/29 05:06:42;;;;;;;14.88;8.10;;;2.80;99.90;;;3.32;100.00;98117.63;4980365;28;20875;-83
2024/02/29 05:09:11;;;;;;;18.93;9.07;;;2.80;99.90;;;3.36;100.00;98106.88;4980283;28;20213;-83
2024/02/29 05:11:41;;;;;;;15.77;7.70;;;2.70;99.90;;;3.33;100.00;98114.09;4980245;28;20469;-82
2024/02/29 05:14:10;;;;;;;16.03;7.60;;;2.60;99.90;;;3.26;100.00;98119.00;4980250;28;20473;-82
2024/02/29 05:16:38;;;;;;;15.38;6.07;;;2.60;99.90;;;3.22;100.00;98114.25;4980915;28;20466;-81
2024/02/29 05:19:06;;;;;;;22.97;7.33;;;2.60;99.90;;;3.15;100.00;98118.34;4980091;28;20294;-82
2024/02/29 05:21:35;;;;;;;14.50;7.57;;;2.50;99.90;;;3.16;100.00;98107.84;4981065;28;20547;-82
2024/02/29 05:24:03;;;;;;;12.50;6.47;;;2.50;99.90;;;3.17;100.00;98114.66;4979615;28;20468;-82
2024/02/29 05:26:32;;;;;;;12.10;5.50;;;2.50;99.90;;;3.11;100.00;98109.22;4979747;28;20471;-82
2024/02/29 05:29:03;;;;;;;13.93;7.13;;;2.70;99.90;;;3.00;100.00;98107.63;4979770;28;20470;-81
2024/02/29 05:31:31;;;;;;;12.33;6.67;;;2.60;99.90;;;2.83;100.00;98100.56;4981322;28;20460;-83
2024/02/29 05:34:00;;;;;;;14.05;6.30;;;2.40;99.90;;;2.83;100.00;98096.22;4982061;28;20466;-82
2024/02/29 05:36:28;;;;;;;12.33;6.57;;;2.30;99.90;;;2.88;100.00;98103.56;4981279;28;20747;-82
2024/02/29 05:38:57;;;;;;;16.63;7.00;;;2.20;99.90;;;2.82;100.00;98102.34;4981127;28;20470;-82
2024/02/29 05:41:25;;;;;;;15.07;7.47;;;2.40;99.90;;;2.88;100.00;98111.31;4981522;28;20880;-82
2024/02/29 05:43:53;;;;;;;18.13;8.27;;;2.20;99.90;;;2.96;100.00;98106.25;4984653;28;20956;-82
2024/02/29 05:46:23;;;;;;;13.83;7.03;;;2.30;99.90;;;2.96;100.00;98112.25;4983858;28;20470;-82
2024/02/29 05:48:52;;;;;;;15.80;6.87;;;2.30;99.90;;;2.87;100.00;98104.50;4984016;28;20789;-82
2024/02/29 05:51:20;;;;;;;10.93;6.30;;;2.30;99.90;;;2.84;100.00;98104.78;4986270;28;20474;-82
2024/02/29 05:53:48;;;;;;;15.93;6.53;;;2.20;99.90;;;2.72;100.00;98096.38;4984998;28;20468;-82
2024/02/29 05:56:17;;;;;;;11.00;5.70;;;2.00;99.90;;;2.68;100.00;98092.41;4983180;28;20472;-82
2024/02/29 05:58:45;;;;;;;13.32;6.47;;;2.00;99.90;;;2.74;100.00;98091.88;4985114;28;20466;-82
2024/02/29 06:01:14;;;;;;;12.70;6.33;;;2.10;99.90;;;2.76;100.00;98094.31;4983292;28;20228;-82
2024/02/29 06:03:44;;;;;;;14.17;6.73;;;2.20;99.90;;;2.79;100.00;98096.63;4984269;28;20825;-82
2024/02/29 06:06:12;;;;;;;11.27;6.07;;;2.20;99.90;;;2.80;100.00;98093.09;4983537;28;20562;-82
2024/02/29 06:08:40;;;;;;;14.02;6.45;;;2.20;99.90;;;2.83;100.00;98093.66;4982502;28;20550;-82
2024/02/29 06:11:14;;;;;;;15.87;6.23;;;2.10;99.90;;;2.82;100.00;98091.19;4983487;28;20252;-82
2024/02/29 06:13:43;;;;;;;14.20;6.67;;;2.10;99.90;;;2.85;100.00;98098.66;4985589;28;20469;-82
2024/02/29 06:16:13;;;;;;;15.27;6.60;;;2.20;99.90;;;2.88;100.00;98098.41;4984841;28;20542;-82
2024/02/29 06:18:46;;;;;;;17.30;6.93;;;2.20;99.90;;;2.85;100.00;98090.91;4983881;28;20593;-82
2024/02/29 06:21:15;;;;;;;14.47;7.27;;;2.10;99.90;;;2.83;100.00;98090.25;4985228;28;20489;-82
2024/02/29 06:23:43;;;;;;;10.30;6.23;;;2.40;99.90;;;2.80;100.00;98082.78;4985034;28;20460;-82
2024/02/29 06:26:12;;;;;;;12.53;6.30;;;2.20;99.90;;;2.84;100.00;98095.28;4985077;28;20469;-82
2024/02/29 06:28:41;;;;;;;15.15;6.72;;;2.30;99.90;;;2.85;100.00;98089.16;4982039;28;20922;-82
2024/02/29 06:31:09;;;;;;;13.73;5.80;;;2.30;99.90;;;2.73;100.00;98087.69;4977529;28;20208;-82
2024/02/29 06:33:38;;;;;;;11.80;6.27;;;2.10;99.90;;;2.80;100.00;98081.00;4980989;28;20747;-82
2024/02/29 06:36:08;;;;;;;31.43;13.60;;;2.20;99.90;;;2.76;100.00;98084.00;4983432;28;20811;-84
2024/02/29 06:38:37;;;;;;;15.03;6.40;;;2.10;99.90;;;2.72;100.00;98082.63;4982058;28;20580;-82
2024/02/29 06:41:09;;;;;;;14.90;7.00;;;2.10;99.90;;;2.74;100.00;98086.69;4981240;28;20487;-80
2024/02/29 06:43:38;;;;;;;16.80;7.33;;;2.10;99.90;;;2.72;100.00;98092.97;4983865;28;20472;-79
2024/02/29 06:46:07;;;;;;;13.57;6.77;;;2.10;99.90;;;2.71;100.00;98088.78;4983998;28;20463;-79
2024/02/29 06:48:36;;;;;;;17.63;7.75;;;2.00;99.90;;;2.73;100.00;98084.28;4983850;28;20474;-79
2024/02/29 06:51:06;;;;;;;10.90;5.43;;;2.20;99.90;;;2.74;100.00;98085.91;4982539;28;20225;-80
2024/02/29 06:53:35;;;;;;;19.48;8.40;;;2.10;99.90;;;2.75;100.00;98084.94;4983026;28;20475;-79
2024/02/29 06:56:04;;;;;;;11.67;5.67;;;2.20;99.90;;;2.85;100.00;98083.16;4983032;28;20209;-79
2024/02/29 06:58:34;;;;;;;13.97;6.73;;;2.20;99.90;;;2.86;100.00;98085.63;4981944;28;20471;-79
2024/02/29 07:01:04;;;;;;;19.33;7.50;;;2.10;99.90;;;2.82;100.00;98078.28;4983061;28;20547;-80
2024/02/29 07:03:33;;;;;;;16.93;7.10;;;2.20;99.90;;;2.83;100.00;98079.91;4983921;28;20467;-80
2024/02/29 07:06:01;;;;;;;11.33;5.57;;;2.20;99.90;;;2.88;100.00;98081.13;4982668;28;20467;-80
2024/02/29 07:08:34;;;;;;;13.23;6.30;;;2.20;99.90;;;2.84;100.00;98068.66;4981342;28;20498;-79
2024/02/29 07:11:03;;;;;;;12.20;6.33;;;2.20;99.90;;;2.81;100.00;98066.34;4981709;28;20205;-79
2024/02/29 07:13:32;;;;;;;12.10;6.60;;;2.20;99.90;;;2.80;100.00;98059.53;4982923;28;20860;-79
2024/02/29 07:16:00;;;;;;;12.57;6.90;;;2.20;99.90;;;2.77;100.00;98054.66;4982175;28;20471;-80
2024/02/29 07:18:29;;;;;;;13.77;6.80;;;2.10;99.90;;;2.78;100.00;98046.75;4983311;28;20548;-79
2024/02/29 07:20:57;;;;;;;16.80;5.87;;;2.30;99.90;;;2.85;100.00;98047.84;4983946;28;20691;-80
2024/02/29 07:23:26;;;;;;;11.45;5.90;;;2.30;99.90;;;2.81;100.00;98050.84;4982912;28;20584;-79
2024/02/29 07:25:55;;;;;;;9.77;5.20;;;2.10;99.90;;;2.92;100.00;98048.09;4986787;28;20206;-80
2024/02/29 07:28:24;;;;;;;12.73;6.73;;;2.20;99.90;;;2.92;100.00;98045.50;4982254;28;20571;-80
2024/02/29 07:30:53;;;;;;;11.57;6.50;;;2.20;99.90;;;2.95;100.00;98047.84;4982518;28;20963;-80
2024/02/29 07:33:21;;;;;;;11.45;5.75;;;2.30;99.90;;;2.87;100.00;98047.72;4982409;28;20467;-80
2024/02/29 07:35:50;;;;;;;12.40;5.30;;;2.30;99.90;;;2.85;100.00;98047.84;4982990;28;20216;-80
2024/02/29 07:38:18;;;;;;;9.60;5.40;;;2.20;99.90;;;2.84;100.00;98053.16;4981722;28;21052;-80
2024/02/29 07:40:46;;;;;;;14.37;6.77;;;2.20;99.90;;;2.78;100.00;98053.69;4980757;28;20472;-80
2024/02/29 07:43:16;;;;;;;12.13;5.67;;;2.20;99.90;;;2.85;100.00;98047.00;4978613;28;20496;-80
2024/02/29 07:45:45;;;;;;;14.17;6.37;;;2.20;99.90;;;2.76;100.00;98037.53;4980219;28;20529;-80
2024/02/29 07:48:14;;;;;;;13.17;5.33;;;2.10;99.90;;;2.77;100.00;98039.16;4980775;28;20472;-81
2024/02/29 07:50:43;;;;;;;12.77;6.30;;;2.20;99.90;;;2.90;100.00;98042.25;4983544;28;20534;-80
2024/02/29 07:53:11;;;;;;;9.83;6.00;;;2.30;99.90;;;2.91;100.00;98034.38;4981554;28;20680;-81
2024/02/29 07:55:39;;;;;;;13.57;6.20;;;2.20;99.90;;;2.96;100.00;98033.94;4983445;28;20526;-80
2024/02/29 07:58:10;;;;;;;14.47;6.23;;;2.20;99.90;;;2.95;100.00;98038.31;4982588;28;20501;-80
2024/02/29 08:00:40;;;;;;;10.60;5.83;;;2.20;99.90;;;3.04;100.00;98028.91;4983058;28;20453;-80
2024/02/29 08:03:10;;;;;;;10.63;6.10;;;2.30;99.90;;;3.12;100.00;98029.03;4981832;28;20532;-80
2024/02/29 08:05:39;;;;;;;10.67;5.40;;;2.40;99.90;;;3.12;100.00;98039.38;4981965;28;20982;-80
2024/02/29 08:08:11;;;;;;;13.93;6.10;;;2.40;99.90;;;3.06;100.00;98029.56;4982934;28;20469;-80
2024/02/29 08:10:39;;;;;;;12.03;5.73;;;2.40;99.90;;;3.06;100.00;98032.16;4980588;28;20971;-80
2024/02/29 08:13:08;;;;;;;11.20;5.57;;;2.40;99.90;;;3.04;100.00;98031.50;4978224;28;20515;-80
2024/02/29 08:15:37;;;;;;;12.33;6.53;;;2.30;99.90;;;2.98;100.00;98029.47;4985956;28;20561;-80
2024/02/29 08:18:07;;;;;;;10.60;5.43;;;2.30;99.90;;;2.93;100.00;98023.91;4985328;28;20469;-81
2024/02/29 08:20:36;;;;;;;16.90;7.80;;;2.20;99.90;;;2.99;100.00;98023.34;4983649;28;20559;-80
2024/02/29 08:23:05;;;;;;;15.47;7.13;;;2.20;99.90;;;3.00;100.00;98015.47;4984669;28;20878;-80
2024/02/29 08:25:33;;;;;;;19.00;7.27;;;2.30;99.90;;;3.07;100.00;98020.88;4983797;28;20464;-80
2024/02/29 08:28:02;;;;;;;17.60;7.20;;;2.30;99.90;;;3.10;100.00;98015.44;4984099;28;20742;-80
2024/02/29 08:30:31;;;;;;;10.70;5.30;;;2.40;99.90;;;3.13;100.00;98009.97;4982192;28;20496;-80
2024/02/29 08:32:59;;;;;;;12.83;6.10;;;2.50;99.90;;;3.25;100.00;98008.03;4984145;28;20471;-81
2024/02/29 08:35:30;;;;;;;13.50;7.18;;;2.70;99.90;;;3.28;100.00;98007.75;4983165;28;20862;-80
2024/02/29 08:37:58;;;;;;;14.73;7.03;;;2.60;99.90;;;3.23;100.00;98008.16;4983114;28;20248;-80
2024/02/29 08:40:27;;;;;;;12.37;5.93;;;2.60;99.90;;;3.29;100.00;98006.81;4981833;28;20471;-81
2024/02/29 08:42:55;;;;;;;18.38;9.00;;;2.60;99.90;;;3.40;100.00;97994.50;4978341;28;20500;-81
2024/02/29 08:45:24;;;;;;;16.98;8.02;;;2.70;99.90;;;3.45;100.00;97994.88;4977328;28;20214;-86
2024/02/29 08:47:52;;;;;;;15.70;7.32;;;2.70;99.90;;;3.52;100.00;97995.13;4978635;28;20213;-81
2024/02/29 08:50:21;;;;;;;11.27;6.70;;;2.90;99.90;;;3.60;100.00;97990.06;4979687;28;20641;-81
2024/02/29 08:52:51;;;;;;;11.83;6.20;;;2.90;99.90;;;3.68;100.00;97997.09;4972384;28;20742;-80
2024/02/29 08:55:20;;;;;;;11.97;6.73;;;3.10;99.90;;;3.67;100.00;97991.09;4976890;28;20873;-81
2024/02/29 08:57:48;;;;;;;18.92;8.45;;;3.00;99.90;;;3.69;100.00;97985.78;4977407;28;20467;-88
2024/02/29 09:00:18;;;;;;;16.40;7.97;;;3.10;99.90;;;3.75;100.00;97982.63;4981133;28;20751;-82
2024/02/29 09:02:47;;;;;;;13.73;7.70;;;3.10;99.90;;;3.78;100.00;97987.50;4980992;28;20488;-82
2024/02/29 09:05:16;;;;;;;9.87;6.33;;;3.20;99.90;;;3.69;100.00;97985.78;4981874;28;20471;-81
2024/02/29 09:07:45;;;;;;;12.73;5.93;;;3.20;99.90;;;3.81;100.00;97989.78;4981573;28;20466;-82
2024/02/29 09:10:16;;;;;;;14.75;6.88;;;3.20;99.90;;;3.87;100.00;97987.44;4981169;28;20498;-81
2024/02/29 09:12:45;;;;;;;15.27;7.40;;;3.20;99.90;;;3.90;100.00;97986.31;4979748;28;20488;-81
2024/02/29 09:15:13;;;;;;;13.80;6.47;;;3.20;99.90;;;3.90;100.00;97983.72;4982433;28;20539;-81
2024/02/29 09:17:42;;;;;;;11.77;6.60;;;3.20;99.90;;;3.95;100.00;97982.34;4985364;28;20472;-81
2024/02/29 09:20:12;;;;;;;15.37;6.20;;;3.20;99.90;;;3.98;100.00;97966.53;4967730;28;20594;-81
2024/02/29 09:22:41;;;;;;;14.77;6.73;;;3.20;99.90;;;3.92;100.00;97974.88;4985086;28;20498;-81
2024/02/29 09:25:11;;;;;;;13.02;6.22;;;3.20;99.90;;;3.97;100.00;97966.66;4966913;28;20466;-81
2024/02/29 09:27:41;;;;;;;12.90;6.77;;;3.30;99.90;;;4.02;100.00;97961.88;4984180;28;20220;-82
2024/02/29 09:30:11;;;;;;;14.07;6.60;;;3.30;99.90;;;4.07;100.00;97950.13;4983317;28;20900;-81
2024/02/29 09:32:39;;;;;;;16.63;7.77;;;3.30;99.90;;;4.10;100.00;97948.19;4984736;28;20488;-82
2024/02/29 09:35:08;;;;;;;10.90;6.10;;;3.50;99.90;;;4.17;100.00;97944.03;4986581;28;20877;-79
2024/02/29 09:37:37;;;;;;;12.43;6.50;;;3.50;99.90;;;4.23;100.00;97939.09;4984228;28;20480;-81
2024/02/29 09:40:07;;;;;;;16.08;7.07;;;3.60;99.90;;;4.26;100.00;97941.38;4985036;28;20556;-80
2024/02/29 09:42:38;;;;;;;15.00;6.83;;;3.60;99.90;;;4.32;100.00;97933.00;4982083;28;20334;-84
2024/02/29 09:45:12;;;;;;;27.73;13.07;;;3.60;99.90;;;4.34;100.00;97932.88;4981392;28;21028;-81
2024/02/29 09:47:42;;;;;;;12.87;6.90;;;3.70;99.90;;;4.39;100.00;97923.69;4982222;28;20466;-80
2024/02/29 09:50:14;;;;;;;11.67;6.97;;;3.70;99.90;;;4.38;100.00;97921.25;4978320;28;20573;-80
2024/02/29 09:52:46;;;;;;;15.55;7.03;;;3.70;99.90;;;4.40;100.00;97920.16;4980500;28;20475;-81
2024/02/29 09:55:19;;;;;;;11.40;6.50;;;3.80;99.90;;;4.46;100.00;97919.53;4981856;28;20210;-81
2024/02/29 09:57:48;;;;;;;14.17;7.27;;;3.80;99.90;;;4.48;100.00;97917.59;4980457;28;20547;-80
2024/02/29 10:00:21;;;;;;;14.70;7.55;;;3.90;99.90;;;4.51;100.00;97917.28;4980310;28;20477;-80
2024/02/29 10:02:51;;;;;;;16.33;6.83;;;3.90;99.90;;;4.57;100.00;97913.28;4982110;28;20197;-81
2024/02/29 10:05:23;;;;;;;11.77;6.80;;;4.00;99.90;;;4.60;100.00;97909.56;4980671;28;20558;-81
2024/02/29 10:07:52;;;;;;;12.97;7.20;;;4.00;99.90;;;4.63;100.00;97904.09;4981752;28;20570;-80
2024/02/29 10:10:21;;;;;;;10.70;6.13;;;4.10;99.90;;;4.72;100.00;97892.81;4981473;28;20467;-81
2024/02/29 10:12:55;;;;;;;17.47;7.60;;;4.10;99.90;;;4.79;100.00;97889.44;4981194;28;20465;-85
2024/02/29 10:15:30;;;;;;;79.70;31.63;;;4.10;99.90;;;4.88;100.00;97882.53;4979743;28;20750;-80
2024/02/29 10:17:59;;;;;;;22.23;9.60;;;4.20;99.90;;;4.94;100.00;97876.72;4983209;28;20478;-81
2024/02/29 10:20:28;;;;;;;15.37;6.83;;;4.20;99.90;;;5.01;100.00;97877.72;4982205;28;20468;-80
2024/02/29 10:22:56;;;;;;;10.10;5.93;;;4.30;99.90;;;5.07;100.00;97870.13;4979908;28;20503;-80
2024/02/29 10:25:26;;;;;;;13.50;6.50;;;4.30;99.90;;;5.16;100.00;97876.16;4980722;28;20498;-80